Aviation Digital Data Service (ADDS)

Output produced by METARs form (0326 UTC 25 January 2020)
found at http://www.aviationweather.gov/metar/data/
 
Forecast for: ZHHH (WUHAN/NANHU , CN)
Text: TAF ZHHH 242111Z 2500/2524 03005MPS 2000 -RA BR SCT010 OVC030 TX06/2507Z TN01/2522Z
Forecast period: 0000 to 0200 UTC 25 January 2020
Forecast type: FROM: standard forecast or significant change
Winds: from the NNE (30 degrees) at 12 MPH (10 knots; 5.1 m/s)
Visibility: 1.24 miles (2.00 km)
Ceiling: 3000 feet AGL
Clouds: scattered clouds at 1000 feet AGL
overcast cloud deck at 3000 feet AGL
Weather: -RA BR  (light rain, mist)
Text: BECMG 2502/2503 3000
Forecast period: 0200 UTC 25 January 2020 to 0000 UTC 26 January 2020
Forecast type: BECOMING: Conditions expected to become as follows by 0300 UTC 25 January 2020
Winds: from the NNE (30 degrees) at 12 MPH (10 knots; 5.1 m/s)
Visibility: 1.86 miles (2.99 km)
Ceiling: 3000 feet AGL
Clouds: scattered clouds at 1000 feet AGL
overcast cloud deck at 3000 feet AGL
Weather: -RA BR  (light rain, mist)